Time;durP1;ratioP1;P1;durP2;ratioP2;P2;SDS_P1;SDS_P2;PMS_P1;PMS_P2;Temp;Humidity;BMP_temperature;BMP_pressure;BME280_temperature;BME280_humidity;BME280_pressure;Samples;Min_cycle;Max_cycle;Signal;HPM_P1;HPM_P2
2023/10/28 00:00:18;;;;;;;8.20;2.00;;;11.00;73.10;;;;;;5058693;28;20263;-81
2023/10/28 00:02:45;;;;;;;5.03;1.75;;;11.00;73.10;;;;;;5060187;28;20349;-80
2023/10/28 00:05:11;;;;;;;8.10;1.95;;;11.00;73.20;;;;;;5066403;28;20020;-80
2023/10/28 00:07:37;;;;;;;3.90;1.67;;;11.00;73.20;;;;;;5058487;28;20613;-80
2023/10/28 00:10:05;;;;;;;6.97;1.55;;;11.00;73.70;;;;;;5062823;28;20039;-82
2023/10/28 00:12:31;;;;;;;4.47;1.60;;;11.00;73.30;;;;;;5061439;28;20035;-79
2023/10/28 00:14:56;;;;;;;4.22;1.98;;;10.90;73.10;;;;;;5067892;28;20232;-81
2023/10/28 00:17:24;;;;;;;7.35;2.08;;;10.90;73.20;;;;;;5061087;28;20476;-81
2023/10/28 00:19:50;;;;;;;7.00;1.70;;;10.90;73.20;;;;;;5063961;28;20211;-81
2023/10/28 00:22:17;;;;;;;5.43;1.40;;;10.90;73.30;;;;;;5063634;28;20502;-80
2023/10/28 00:24:43;;;;;;;6.47;2.70;;;10.90;73.30;;;;;;5049232;28;20036;-80
2023/10/28 00:27:10;;;;;;;6.30;1.67;;;10.80;73.20;;;;;;5061297;28;20047;-80
2023/10/28 00:29:36;;;;;;;4.85;1.58;;;10.80;73.30;;;;;;5049110;28;20082;-80
2023/10/28 00:32:04;;;;;;;6.72;1.83;;;10.80;73.30;;;;;;5039333;28;20032;-80
2023/10/28 00:34:32;;;;;;;5.75;1.67;;;10.80;73.30;;;;;;5072838;28;20071;-81
2023/10/28 00:36:58;;;;;;;7.53;1.40;;;10.80;73.30;;;;;;5059385;28;20029;-81
2023/10/28 00:39:24;;;;;;;5.13;1.60;;;10.70;73.10;;;;;;5056462;28;20084;-80
2023/10/28 00:41:50;;;;;;;6.03;2.03;;;10.70;73.10;;;;;;5057233;28;20416;-81
2023/10/28 00:44:17;;;;;;;6.82;2.50;;;10.70;73.10;;;;;;5059904;28;20027;-82
2023/10/28 00:46:43;;;;;;;4.70;2.00;;;10.70;73.20;;;;;;5059948;28;20796;-81
2023/10/28 00:49:09;;;;;;;4.78;2.30;;;10.70;73.20;;;;;;5061288;28;20020;-80
2023/10/28 00:51:35;;;;;;;7.57;2.28;;;10.70;73.20;;;;;;5063837;28;20102;-82
2023/10/28 00:54:01;;;;;;;5.68;2.20;;;10.70;73.20;;;;;;5048000;28;20039;-82
2023/10/28 00:56:28;;;;;;;6.63;2.25;;;10.70;73.20;;;;;;5065389;28;20067;-82
2023/10/28 00:58:55;;;;;;;4.13;1.38;;;10.70;73.20;;;;;;5065197;28;20041;-82
2023/10/28 01:01:21;;;;;;;4.80;1.45;;;10.70;73.30;;;;;;5059342;28;20056;-83
2023/10/28 01:03:47;;;;;;;4.07;1.42;;;10.70;73.30;;;;;;5059840;28;20753;-82
2023/10/28 01:06:14;;;;;;;4.10;1.55;;;10.70;73.30;;;;;;5064452;28;20129;-82
2023/10/28 01:08:40;;;;;;;6.30;1.38;;;10.70;73.30;;;;;;5064521;28;20029;-81
2023/10/28 01:11:06;;;;;;;5.00;1.67;;;10.70;73.40;;;;;;5044744;28;20043;-79
2023/10/28 01:13:32;;;;;;;4.75;1.80;;;10.70;73.40;;;;;;5068113;28;20322;-79
2023/10/28 01:15:59;;;;;;;5.43;1.40;;;10.70;73.40;;;;;;5064512;28;20115;-79
2023/10/28 01:18:26;;;;;;;6.25;1.60;;;10.70;73.40;;;;;;5061824;28;20106;-80
2023/10/28 01:20:51;;;;;;;3.33;1.42;;;10.60;73.30;;;;;;5065110;28;20037;-80
2023/10/28 01:23:18;;;;;;;6.38;2.78;;;10.60;73.30;;;;;;5064021;28;20029;-80
2023/10/28 01:25:43;;;;;;;2.85;1.40;;;10.70;73.50;;;;;;5060919;28;20163;-80
2023/10/28 01:28:09;;;;;;;4.05;1.17;;;10.60;73.40;;;;;;5058562;28;20031;-80
2023/10/28 01:30:37;;;;;;;4.88;1.17;;;10.60;73.40;;;;;;5062540;28;20074;-80
2023/10/28 01:33:03;;;;;;;6.13;1.98;;;10.60;73.40;;;;;;5062401;28;20025;-80
2023/10/28 01:35:31;;;;;;;5.28;2.00;;;10.60;73.50;;;;;;5075605;28;20063;-80
2023/10/28 01:37:57;;;;;;;5.07;1.95;;;10.50;73.30;;;;;;5061327;28;20094;-80
2023/10/28 01:40:24;;;;;;;5.47;2.17;;;10.50;73.90;;;;;;5065145;28;20056;-80
2023/10/28 01:42:50;;;;;;;7.57;1.50;;;10.50;73.40;;;;;;5064335;28;20086;-81
2023/10/28 01:45:16;;;;;;;6.20;1.50;;;10.50;73.40;;;;;;5061968;28;20028;-81
2023/10/28 01:47:42;;;;;;;5.30;1.50;;;10.50;73.40;;;;;;5061684;28;20064;-80
2023/10/28 01:50:12;;;;;;;8.25;1.48;;;10.50;73.50;;;;;;5061538;28;20028;-80
2023/10/28 01:52:39;;;;;;;7.80;2.70;;;10.50;73.50;;;;;;5061530;28;20639;-81
2023/10/28 01:55:07;;;;;;;3.05;1.23;;;10.50;73.50;;;;;;5063868;28;20032;-80
2023/10/28 01:57:33;;;;;;;6.30;1.80;;;10.50;73.50;;;;;;5059983;28;20052;-81
2023/10/28 02:00:03;;;;;;;5.25;1.33;;;10.50;73.60;;;;;;5062890;28;20047;-80
2023/10/28 02:02:36;;;;;;;5.00;1.63;;;10.50;73.60;;;;;;5061140;28;20440;-80
2023/10/28 02:05:02;;;;;;;6.15;1.40;;;10.50;73.60;;;;;;5066868;28;20020;-80
2023/10/28 02:07:28;;;;;;;6.45;1.45;;;10.50;73.60;;;;;;5062394;28;20149;-80
2023/10/28 02:09:54;;;;;;;6.22;1.08;;;10.60;73.80;;;;;;5062531;28;20561;-81
2023/10/28 02:12:21;;;;;;;8.32;1.55;;;10.50;73.70;;;;;;5062144;28;20125;-80
2023/10/28 02:14:48;;;;;;;4.57;1.30;;;10.60;73.90;;;;;;5062581;28;20653;-80
2023/10/28 02:17:14;;;;;;;5.85;1.63;;;10.60;73.90;;;;;;5059428;28;20135;-80
2023/10/28 02:19:40;;;;;;;4.15;1.10;;;10.60;74.00;;;;;;5095676;27;20055;-80
2023/10/28 02:22:06;;;;;;;5.90;1.52;;;10.50;73.80;;;;;;5062035;28;20119;-79
2023/10/28 02:24:32;;;;;;;8.60;1.90;;;10.50;73.80;;;;;;5063223;28;20411;-80
2023/10/28 02:26:58;;;;;;;4.25;1.42;;;10.60;74.10;;;;;;5057559;28;20508;-81
2023/10/28 02:29:24;;;;;;;7.07;1.52;;;10.60;74.10;;;;;;5059265;28;20066;-81
2023/10/28 02:31:50;;;;;;;6.15;1.50;;;10.60;74.20;;;;;;5060969;28;20033;-81
2023/10/28 02:34:16;;;;;;;5.22;1.30;;;10.50;74.10;;;;;;5044577;28;20028;-81
2023/10/28 02:36:42;;;;;;;7.03;1.42;;;10.50;74.10;;;;;;5057490;28;20419;-81
2023/10/28 02:39:09;;;;;;;7.97;1.58;;;10.50;74.10;;;;;;5063583;28;20040;-80
2023/10/28 02:41:35;;;;;;;3.70;1.17;;;10.60;74.40;;;;;;5052328;28;20028;-80
2023/10/28 02:44:03;;;;;;;5.82;1.70;;;10.60;74.40;;;;;;5053999;28;20476;-80
2023/10/28 02:46:29;;;;;;;4.32;1.30;;;10.50;74.30;;;;;;5074302;28;20036;-80
2023/10/28 02:48:55;;;;;;;8.52;2.45;;;10.50;74.30;;;;;;5062110;28;20507;-80
2023/10/28 02:51:21;;;;;;;6.80;1.70;;;10.60;74.60;;;;;;5060102;28;20206;-81
2023/10/28 02:53:48;;;;;;;4.57;1.42;;;10.50;74.40;;;;;;5062280;28;20075;-80
2023/10/28 02:56:15;;;;;;;5.43;1.45;;;10.60;74.60;;;;;;5046726;28;20115;-80
2023/10/28 02:58:40;;;;;;;9.93;2.30;;;10.60;74.60;;;;;;5061048;28;20038;-79
2023/10/28 03:01:08;;;;;;;9.55;1.42;;;10.60;74.70;;;;;;5055357;28;20029;-80
2023/10/28 03:03:34;;;;;;;4.25;1.92;;;10.60;74.70;;;;;;5058147;28;20123;-79
2023/10/28 03:06:00;;;;;;;8.93;2.15;;;10.60;74.70;;;;;;5062116;28;20029;-80
2023/10/28 03:08:26;;;;;;;7.28;1.48;;;10.60;74.70;;;;;;5061051;28;20672;-79
2023/10/28 03:10:52;;;;;;;6.03;1.73;;;10.60;74.80;;;;;;5043514;28;20034;-80
2023/10/28 03:13:18;;;;;;;9.52;1.85;;;10.60;74.90;;;;;;5061986;28;20021;-80
2023/10/28 03:15:46;;;;;;;4.38;1.58;;;10.60;74.90;;;;;;5060178;28;20037;-80
2023/10/28 03:18:15;;;;;;;8.90;1.27;;;10.60;75.00;;;;;;5064074;28;20047;-80
2023/10/28 03:20:42;;;;;;;7.57;1.73;;;10.60;75.00;;;;;;5059585;28;20079;-80
2023/10/28 03:23:08;;;;;;;6.95;1.63;;;10.60;75.10;;;;;;5042725;28;20090;-80
2023/10/28 03:25:34;;;;;;;7.88;1.88;;;10.60;75.10;;;;;;5044144;28;20454;-80
2023/10/28 03:28:04;;;;;;;5.75;1.08;;;10.60;75.10;;;;;;5057496;28;20083;-80
2023/10/28 03:30:31;;;;;;;7.30;1.88;;;10.60;75.20;;;;;;5065756;28;20032;-80
2023/10/28 03:32:58;;;;;;;5.25;1.30;;;10.60;75.20;;;;;;5056629;28;20258;-80
2023/10/28 03:35:24;;;;;;;10.82;1.63;;;10.60;75.20;;;;;;5061219;28;20032;-79
2023/10/28 03:37:51;;;;;;;7.22;1.77;;;10.60;75.30;;;;;;5060906;28;20499;-80
2023/10/28 03:40:17;;;;;;;10.43;2.10;;;10.60;75.40;;;;;;5057366;28;20079;-80
2023/10/28 03:42:43;;;;;;;5.70;1.77;;;10.70;75.50;;;;;;5056844;28;20033;-80
2023/10/28 03:45:09;;;;;;;5.88;1.27;;;10.70;75.60;;;;;;5054883;28;20047;-79
2023/10/28 03:47:38;;;;;;;7.15;1.20;;;10.70;75.60;;;;;;5061126;28;20129;-79
2023/10/28 03:50:05;;;;;;;9.23;1.90;;;10.70;75.70;;;;;;5061022;28;20028;-80
2023/10/28 03:52:31;;;;;;;7.88;1.52;;;10.70;76.20;;;;;;5059800;28;20094;-79
2023/10/28 03:54:57;;;;;;;5.50;1.52;;;10.70;75.70;;;;;;5061138;28;20032;-81
2023/10/28 03:57:23;;;;;;;8.07;1.83;;;10.70;75.70;;;;;;5062485;28;20395;-81
2023/10/28 03:59:49;;;;;;;7.05;1.38;;;10.70;75.80;;;;;;5059697;28;20032;-82
2023/10/28 04:02:17;;;;;;;8.60;1.50;;;10.70;75.80;;;;;;5060855;28;20038;-81
2023/10/28 04:04:43;;;;;;;5.57;1.30;;;10.70;75.80;;;;;;5060893;28;20518;-80
2023/10/28 04:07:10;;;;;;;7.70;1.63;;;10.80;76.00;;;;;;5059669;28;20184;-79
2023/10/28 04:09:37;;;;;;;8.15;1.90;;;10.80;76.00;;;;;;5058316;28;20498;-79
2023/10/28 04:12:05;;;;;;;8.13;2.00;;;10.80;76.10;;;;;;5060077;28;20036;-79
2023/10/28 04:14:35;;;;;;;7.57;1.70;;;10.80;76.10;;;;;;5059618;28;20028;-79
2023/10/28 04:17:03;;;;;;;7.30;1.70;;;10.80;76.20;;;;;;5058541;28;20379;-79
2023/10/28 04:19:29;;;;;;;5.28;1.83;;;10.90;76.40;;;;;;5060815;28;20089;-80
2023/10/28 04:21:55;;;;;;;6.90;1.77;;;10.90;76.40;;;;;;5061051;28;20228;-79
2023/10/28 04:24:23;;;;;;;6.15;2.03;;;10.90;76.40;;;;;;5058944;28;20516;-79
2023/10/28 04:26:49;;;;;;;7.38;1.50;;;10.90;76.40;;;;;;5059812;28;20051;-79
2023/10/28 04:29:15;;;;;;;6.45;1.23;;;10.90;76.40;;;;;;5056726;28;20032;-79
2023/10/28 04:31:41;;;;;;;3.65;1.20;;;10.90;76.50;;;;;;5059237;28;20369;-80
2023/10/28 04:34:07;;;;;;;6.90;1.23;;;11.00;76.70;;;;;;5061743;28;20125;-80
2023/10/28 04:36:33;;;;;;;9.70;2.25;;;11.00;76.60;;;;;;5059207;28;20126;-80
2023/10/28 04:39:00;;;;;;;6.45;1.65;;;11.00;76.70;;;;;;5059273;28;20119;-79
2023/10/28 04:41:26;;;;;;;4.28;1.15;;;11.00;76.70;;;;;;5053901;28;20036;-79
2023/10/28 04:43:52;;;;;;;9.48;1.73;;;11.00;76.70;;;;;;5056488;28;20110;-79
2023/10/28 04:46:18;;;;;;;9.80;1.92;;;11.00;76.70;;;;;;5061445;28;20051;-79
2023/10/28 04:48:46;;;;;;;6.35;1.75;;;11.00;76.70;;;;;;5057689;28;20058;-79
2023/10/28 04:51:13;;;;;;;8.57;1.05;;;11.00;76.80;;;;;;5057942;28;20033;-79
2023/10/28 04:53:39;;;;;;;10.82;2.25;;;11.00;76.80;;;;;;5060374;28;20025;-79
2023/10/28 04:56:08;;;;;;;7.75;1.30;;;11.00;76.80;;;;;;5058973;28;20032;-80
2023/10/28 04:58:34;;;;;;;6.45;1.17;;;11.00;76.80;;;;;;5045282;28;20044;-80
2023/10/28 05:01:00;;;;;;;7.68;1.58;;;11.00;76.80;;;;;;5062155;28;20028;-80
2023/10/28 05:03:26;;;;;;;7.13;1.55;;;11.00;76.80;;;;;;5061317;28;20028;-81
2023/10/28 05:05:52;;;;;;;8.15;2.72;;;11.00;76.80;;;;;;5056706;28;20035;-82
2023/10/28 05:08:20;;;;;;;3.75;1.70;;;11.00;76.90;;;;;;5051886;28;20176;-83
2023/10/28 05:10:46;;;;;;;6.40;0.90;;;11.00;76.90;;;;;;5030833;28;20036;-82
2023/10/28 05:13:12;;;;;;;6.90;1.75;;;11.00;76.90;;;;;;5057930;28;20122;-81
2023/10/28 05:15:38;;;;;;;8.10;1.55;;;10.90;76.70;;;;;;5060175;28;20491;-81
2023/10/28 05:18:05;;;;;;;6.93;1.92;;;11.00;76.90;;;;;;5069661;28;20067;-81
2023/10/28 05:20:34;;;;;;;5.90;1.10;;;11.00;77.00;;;;;;5063839;28;20032;-82
2023/10/28 05:23:00;;;;;;;7.53;1.63;;;11.00;77.00;;;;;;5062619;28;20218;-81
2023/10/28 05:25:26;;;;;;;6.95;1.33;;;11.00;77.00;;;;;;5059145;28;20044;-81
2023/10/28 05:27:52;;;;;;;4.57;1.38;;;11.00;77.00;;;;;;5044816;28;20041;-80
2023/10/28 05:30:18;;;;;;;7.35;1.73;;;11.00;77.10;;;;;;5061296;28;20380;-82
2023/10/28 05:32:44;;;;;;;8.73;1.73;;;11.00;77.00;;;;;;5061270;28;20055;-82
2023/10/28 05:35:11;;;;;;;7.68;1.10;;;11.00;77.10;;;;;;5058768;28;20025;-82
2023/10/28 05:37:40;;;;;;;8.68;2.15;;;11.00;77.60;;;;;;5059173;28;20028;-82
2023/10/28 05:40:15;;;;;;;7.43;1.80;;;11.10;77.30;;;;;;5083713;28;20052;-82
2023/10/28 05:42:41;;;;;;;6.80;1.52;;;11.10;77.30;;;;;;5055982;28;20056;-82
2023/10/28 05:45:08;;;;;;;6.32;1.88;;;11.10;77.40;;;;;;5056341;28;20064;-83
2023/10/28 05:47:34;;;;;;;7.10;1.25;;;11.10;77.40;;;;;;5062211;28;20135;-83
2023/10/28 05:50:04;;;;;;;6.28;1.55;;;11.10;77.40;;;;;;5058402;28;20021;-82
2023/10/28 05:52:33;;;;;;;9.00;1.70;;;11.10;77.40;;;;;;5060908;28;20480;-80
2023/10/28 05:54:59;;;;;;;9.07;1.40;;;11.10;77.40;;;;;;5057508;28;20543;-80
2023/10/28 05:57:26;;;;;;;5.75;1.60;;;11.20;77.60;;;;;;5060216;28;20168;-79
2023/10/28 05:59:52;;;;;;;5.18;1.27;;;11.20;77.60;;;;;;5062671;28;20116;-81
2023/10/28 06:02:18;;;;;;;12.05;1.52;;;11.20;77.60;;;;;;5069062;28;20474;-81
2023/10/28 06:04:44;;;;;;;7.00;1.63;;;11.20;77.60;;;;;;5062280;28;20032;-81
2023/10/28 06:07:10;;;;;;;9.80;1.63;;;11.20;77.60;;;;;;5061066;28;20037;-81
2023/10/28 06:09:36;;;;;;;9.75;1.60;;;11.20;77.60;;;;;;5058908;28;20028;-81
2023/10/28 06:12:02;;;;;;;8.32;2.38;;;11.20;77.60;;;;;;5068216;28;20417;-81
2023/10/28 06:14:28;;;;;;;7.38;1.65;;;11.20;77.60;;;;;;5064017;28;20263;-79
2023/10/28 06:16:55;;;;;;;7.60;1.40;;;11.20;77.60;;;;;;5061421;28;20487;-79
2023/10/28 06:19:23;;;;;;;4.75;1.40;;;11.20;77.70;;;;;;5068593;28;20476;-81
2023/10/28 06:21:50;;;;;;;9.93;1.55;;;11.20;77.70;;;;;;5061869;28;20028;-82
2023/10/28 06:24:16;;;;;;;6.47;1.25;;;11.20;77.70;;;;;;5049323;28;20032;-81
2023/10/28 06:26:45;;;;;;;6.68;2.15;;;11.20;77.70;;;;;;5059733;28;20081;-83
2023/10/28 06:29:12;;;;;;;9.63;2.03;;;11.30;77.90;;;;;;5062299;28;20392;-82
2023/10/28 06:31:39;;;;;;;9.40;1.70;;;11.30;77.90;;;;;;5044058;28;20039;-82
2023/10/28 06:34:05;;;;;;;7.35;1.30;;;11.30;78.00;;;;;;5065289;28;20079;-83
2023/10/28 06:36:35;;;;;;;5.22;1.67;;;11.30;77.90;;;;;;5056249;28;20032;-82
2023/10/28 06:39:02;;;;;;;7.45;1.60;;;11.30;77.90;;;;;;5043356;28;20045;-82
2023/10/28 06:41:28;;;;;;;7.25;1.67;;;11.30;77.90;;;;;;5072575;28;20182;-80
2023/10/28 06:43:54;;;;;;;11.18;2.40;;;11.30;77.90;;;;;;5072257;28;20032;-81
2023/10/28 06:46:20;;;;;;;9.00;1.75;;;11.30;77.90;;;;;;5063076;28;20527;-83
2023/10/28 06:48:46;;;;;;;10.65;1.40;;;11.30;77.90;;;;;;5062397;28;20040;-83
2023/10/28 06:51:12;;;;;;;11.00;2.05;;;11.30;77.90;;;;;;5058734;28;20036;-81
2023/10/28 06:53:42;;;;;;;8.02;1.77;;;11.30;77.90;;;;;;5056855;28;20056;-82
2023/10/28 06:56:08;;;;;;;8.80;2.78;;;11.30;77.90;;;;;;5038729;28;20028;-82
2023/10/28 06:58:34;;;;;;;7.38;1.85;;;11.30;78.00;;;;;;5054855;28;20085;-81
2023/10/28 07:01:00;;;;;;;7.90;2.50;;;11.30;78.10;;;;;;5059437;28;20034;-82
2023/10/28 07:03:27;;;;;;;8.63;1.58;;;11.30;78.00;;;;;;5061971;28;20080;-82
2023/10/28 07:05:53;;;;;;;8.15;1.75;;;11.30;78.10;;;;;;5053269;28;20480;-79
2023/10/28 07:08:20;;;;;;;8.52;1.65;;;11.30;78.10;;;;;;5051657;28;20487;-81
2023/10/28 07:10:47;;;;;;;7.57;2.47;;;11.40;78.20;;;;;;5059379;28;20029;-82
2023/10/28 07:13:13;;;;;;;5.93;1.67;;;11.30;78.10;;;;;;5063332;28;20045;-83
2023/10/28 07:15:39;;;;;;;8.35;2.00;;;11.30;78.10;;;;;;5058931;28;20039;-83
2023/10/28 07:18:07;;;;;;;6.63;2.20;;;11.40;78.30;;;;;;5052770;28;20377;-81
2023/10/28 07:20:33;;;;;;;7.15;1.83;;;11.40;78.30;;;;;;5047903;28;20033;-82
2023/10/28 07:23:02;;;;;;;7.70;1.77;;;11.40;78.30;;;;;;5056780;28;20034;-80
2023/10/28 07:25:29;;;;;;;7.43;1.67;;;11.30;78.10;;;;;;5056724;28;20449;-83
2023/10/28 07:27:55;;;;;;;7.70;1.70;;;11.40;78.20;;;;;;5048905;28;20044;-83
2023/10/28 07:30:22;;;;;;;9.30;3.38;;;11.40;78.20;;;;;;5087321;27;20244;-91
2023/10/28 07:32:48;;;;;;;14.35;2.53;;;11.40;78.20;;;;;;5059752;28;20052;-80
2023/10/28 07:35:16;;;;;;;7.20;1.63;;;11.40;78.20;;;;;;5058503;28;20035;-80
2023/10/28 07:37:43;;;;;;;6.05;1.33;;;11.40;78.20;;;;;;5057773;28;20628;-80
2023/10/28 07:40:11;;;;;;;6.82;1.63;;;11.40;78.20;;;;;;5061027;28;20048;-81
2023/10/28 07:42:38;;;;;;;4.75;1.60;;;11.40;78.10;;;;;;5046948;28;20052;-81
2023/10/28 07:45:04;;;;;;;13.68;2.15;;;11.40;78.10;;;;;;5061777;28;20032;-88
2023/10/28 07:47:33;;;;;;;7.88;1.92;;;11.50;78.30;;;;;;5061149;28;20058;-84
2023/10/28 07:49:59;;;;;;;9.65;1.92;;;11.50;78.30;;;;;;5055978;28;20025;-80
2023/10/28 07:52:26;;;;;;;9.57;1.88;;;11.50;78.40;;;;;;5055963;28;20197;-82
2023/10/28 07:54:53;;;;;;;5.53;1.70;;;11.60;78.80;;;;;;5056224;28;20518;-81
2023/10/28 07:57:19;;;;;;;9.30;1.60;;;11.70;79.10;;;;;;5056322;28;20145;-80
2023/10/28 07:59:45;;;;;;;11.77;3.38;;;11.90;79.40;;;;;;5059619;28;20487;-81
2023/10/28 08:02:11;;;;;;;8.65;2.17;;;11.90;79.40;;;;;;5052648;28;20035;-81
2023/10/28 08:04:37;;;;;;;10.73;1.80;;;12.00;79.60;;;;;;5060537;28;20522;-83
2023/10/28 08:07:03;;;;;;;8.27;1.60;;;12.10;80.30;;;;;;5063002;28;20040;-84
2023/10/28 08:09:29;;;;;;;9.15;2.50;;;12.20;79.90;;;;;;5057075;28;20036;-84
2023/10/28 08:11:56;;;;;;;11.65;2.33;;;12.30;80.00;;;;;;5062161;28;20036;-88
2023/10/28 08:14:22;;;;;;;8.30;1.90;;;12.40;80.10;;;;;;5018130;28;20037;-86
2023/10/28 08:16:48;;;;;;;7.28;2.30;;;12.40;80.00;;;;;;5055004;28;20044;-79
2023/10/28 08:19:14;;;;;;;7.55;2.40;;;12.50;80.00;;;;;;5053196;28;20284;-80
2023/10/28 08:21:40;;;;;;;8.90;1.98;;;12.60;80.10;;;;;;5039459;28;20029;-80
2023/10/28 08:24:11;;;;;;;7.28;2.85;;;12.60;80.00;;;;;;5050042;28;20032;-79
2023/10/28 08:26:38;;;;;;;15.25;3.40;;;12.70;80.10;;;;;;5052643;28;20609;-82
2023/10/28 08:29:03;;;;;;;9.52;2.00;;;12.70;80.00;;;;;;5051965;28;20116;-83
2023/10/28 08:31:29;;;;;;;6.50;2.17;;;12.80;80.10;;;;;;5052223;28;20112;-83
2023/10/28 08:33:56;;;;;;;10.23;1.88;;;12.80;80.00;;;;;;5052278;28;20602;-84
2023/10/28 08:36:24;;;;;;;7.57;2.13;;;12.90;80.00;;;;;;5048751;28;20442;-83
2023/10/28 08:38:50;;;;;;;7.72;1.60;;;12.90;80.00;;;;;;5057470;28;20086;-83
2023/10/28 08:41:21;;;;;;;11.40;2.25;;;12.90;79.90;;;;;;5051861;28;20566;-84
2023/10/28 08:43:47;;;;;;;6.25;1.75;;;13.00;80.00;;;;;;5040625;28;20388;-83
2023/10/28 08:46:16;;;;;;;9.07;1.65;;;13.10;80.00;;;;;;5059836;28;20486;-84
2023/10/28 08:48:43;;;;;;;8.85;2.30;;;13.10;79.90;;;;;;5057111;28;20512;-83
2023/10/28 08:51:12;;;;;;;8.93;3.08;;;13.20;80.00;;;;;;5064923;28;20051;-81
2023/10/28 08:53:39;;;;;;;10.23;2.60;;;13.20;79.80;;;;;;5053548;28;20064;-84
2023/10/28 08:56:06;;;;;;;13.40;2.63;;;13.30;79.90;;;;;;5057029;28;20336;-84
2023/10/28 08:58:32;;;;;;;7.65;3.10;;;13.30;79.70;;;;;;5056527;28;20119;-84
2023/10/28 09:01:01;;;;;;;10.23;1.83;;;13.40;79.80;;;;;;5059731;28;20115;-83
2023/10/28 09:03:30;;;;;;;10.13;2.47;;;13.40;79.60;;;;;;5057260;28;20032;-84
2023/10/28 09:05:59;;;;;;;7.90;1.88;;;13.50;79.70;;;;;;5058484;28;20543;-83
2023/10/28 09:08:25;;;;;;;8.60;1.92;;;13.50;79.50;;;;;;5066982;28;20051;-84
2023/10/28 09:10:51;;;;;;;7.05;2.10;;;13.60;79.60;;;;;;5052279;28;20025;-84
2023/10/28 09:13:17;;;;;;;6.88;1.90;;;13.60;79.40;;;;;;5053801;28;20028;-84
2023/10/28 09:15:43;;;;;;;9.25;2.78;;;13.60;79.30;;;;;;5057744;28;20040;-84
2023/10/28 09:18:09;;;;;;;7.25;2.78;;;13.70;79.40;;;;;;5053750;28;20375;-83
2023/10/28 09:20:40;;;;;;;6.38;1.80;;;13.70;79.20;;;;;;5056197;28;20081;-83
2023/10/28 09:23:05;;;;;;;7.05;2.10;;;13.70;79.10;;;;;;5053553;28;20476;-83
2023/10/28 09:25:34;;;;;;;9.68;2.20;;;13.70;79.00;;;;;;5081316;28;20058;-81
2023/10/28 09:28:01;;;;;;;6.90;2.00;;;13.70;78.90;;;;;;5074796;28;20044;-84
2023/10/28 09:30:28;;;;;;;8.98;2.25;;;13.70;78.80;;;;;;5060481;28;20033;-84
2023/10/28 09:32:55;;;;;;;9.00;2.22;;;13.80;78.90;;;;;;5069870;28;20043;-83
2023/10/28 09:35:23;;;;;;;11.95;3.30;;;13.80;78.80;;;;;;5051618;28;20127;-84
2023/10/28 09:37:50;;;;;;;9.57;2.15;;;13.80;78.70;;;;;;5041425;28;20044;-83
2023/10/28 09:40:17;;;;;;;10.02;2.20;;;13.90;78.80;;;;;;5056014;28;20044;-84
2023/10/28 09:42:44;;;;;;;9.05;2.58;;;13.90;78.60;;;;;;5056383;28;20047;-83
2023/10/28 09:45:10;;;;;;;11.10;3.13;;;14.00;78.60;;;;;;5045047;28;20198;-83
2023/10/28 09:47:53;;;;;;;9.20;2.08;;;14.00;78.50;;;;;;5060637;28;20177;-84
2023/10/28 09:50:22;;;;;;;13.13;2.72;;;14.00;78.30;;;;;;5056431;28;20104;-82
2023/10/28 09:52:52;;;;;;;10.20;3.70;;;14.10;78.40;;;;;;5036005;28;20484;-80
2023/10/28 09:55:26;;;;;;;12.50;2.58;;;14.10;78.30;;;;;;5060508;28;20029;-81
2023/10/28 09:58:02;;;;;;;9.40;2.40;;;14.10;78.30;;;;;;5058836;28;20115;-81
2023/10/28 10:00:30;;;;;;;8.20;2.28;;;14.10;78.20;;;;;;5061241;28;20110;-80
2023/10/28 10:03:22;;;;;;;11.02;2.35;;;14.20;78.30;;;;;;5053887;28;20491;-81
2023/10/28 10:05:51;;;;;;;10.20;2.75;;;14.20;78.10;;;;;;5059141;28;20033;-81
2023/10/28 10:08:19;;;;;;;9.30;2.83;;;14.30;78.20;;;;;;5058128;28;20039;-80
2023/10/28 10:10:45;;;;;;;10.43;3.47;;;14.20;77.90;;;;;;5055132;28;20292;-81
2023/10/28 10:13:11;;;;;;;12.25;2.50;;;14.30;78.00;;;;;;5057090;28;20033;-80
2023/10/28 10:15:42;;;;;;;11.35;2.45;;;14.30;77.90;;;;;;5060049;28;20031;-80
2023/10/28 10:18:11;;;;;;;21.15;3.25;;;14.30;77.80;;;;;;5053261;28;20033;-81
2023/10/28 10:20:46;;;;;;;13.60;3.30;;;14.40;77.90;;;;;;5050961;28;20091;-82
2023/10/28 10:23:14;;;;;;;13.85;2.92;;;14.40;77.80;;;;;;5058537;28;20056;-83
2023/10/28 10:25:45;;;;;;;11.70;2.70;;;14.40;77.70;;;;;;5040267;28;20039;-83
2023/10/28 10:28:12;;;;;;;12.73;3.15;;;14.40;77.60;;;;;;5052336;28;20079;-83
2023/10/28 10:30:38;;;;;;;11.77;2.92;;;14.40;77.60;;;;;;5052934;28;20698;-81
2023/10/28 10:33:04;;;;;;;16.90;4.07;;;14.50;77.70;;;;;;5058053;28;20037;-81
2023/10/28 10:35:32;;;;;;;13.00;2.83;;;14.50;77.60;;;;;;5051896;28;20067;-82
2023/10/28 10:38:09;;;;;;;13.77;3.30;;;14.60;77.70;;;;;;5051768;28;20414;-81
2023/10/28 10:40:49;;;;;;;14.20;3.13;;;14.70;77.60;;;;;;5047276;28;20145;-81
2023/10/28 10:43:20;;;;;;;15.00;4.68;;;14.80;77.60;;;;;;5047150;28;20507;-81
2023/10/28 10:45:47;;;;;;;13.68;3.15;;;14.80;77.40;;;;;;5056975;28;20040;-82
2023/10/28 10:48:13;;;;;;;16.80;3.80;;;14.90;77.40;;;;;;5055313;28;20492;-81
2023/10/28 10:50:40;;;;;;;15.27;3.20;;;14.90;77.20;;;;;;5054833;28;20381;-79
2023/10/28 10:53:06;;;;;;;22.63;4.55;;;15.00;77.20;;;;;;5038077;28;20373;-86
2023/10/28 10:55:33;;;;;;;14.00;3.25;;;15.10;77.30;;;;;;5057099;28;20518;-83
2023/10/28 10:57:59;;;;;;;13.70;3.00;;;15.10;77.10;;;;;;5037038;28;20036;-88
2023/10/28 11:00:26;;;;;;;16.50;4.72;;;15.10;77.00;;;;;;5042659;28;20024;-86
2023/10/28 11:02:57;;;;;;;18.15;5.38;;;15.20;77.10;;;;;;5049180;28;20029;-83
2023/10/28 11:05:23;;;;;;;17.90;6.40;;;15.30;77.70;;;;;;5056657;28;20305;-83
2023/10/28 11:07:50;;;;;;;21.17;6.25;;;15.30;77.20;;;;;;5053963;28;20044;-81
2023/10/28 11:10:19;;;;;;;16.17;5.70;;;15.30;77.10;;;;;;5056171;28;20285;-82
2023/10/28 11:12:45;;;;;;;16.70;6.55;;;15.40;77.20;;;;;;5055764;28;20111;-83
2023/10/28 11:15:12;;;;;;;22.00;6.60;;;15.50;77.30;;;;;;5037297;28;20029;-83
2023/10/28 11:17:42;;;;;;;17.38;5.45;;;15.50;77.10;;;;;;5054379;28;20028;-83
2023/10/28 11:20:11;;;;;;;21.33;5.60;;;15.70;77.20;;;;;;5052679;28;20021;-81
2023/10/28 11:22:39;;;;;;;20.73;6.25;;;15.70;77.00;;;;;;5069721;28;20483;-81
2023/10/28 11:25:07;;;;;;;17.75;6.15;;;15.80;76.90;;;;;;5029773;28;20553;-81
2023/10/28 11:27:33;;;;;;;18.58;5.07;;;15.80;76.60;;;;;;5048840;28;20049;-80
2023/10/28 11:30:00;;;;;;;25.75;6.50;;;15.90;76.60;;;;;;5053853;28;20416;-80
2023/10/28 11:32:27;;;;;;;21.90;6.15;;;15.90;76.40;;;;;;5055276;28;20627;-81
2023/10/28 11:34:56;;;;;;;24.13;6.45;;;15.90;76.30;;;;;;5083678;27;20592;-81
2023/10/28 11:37:23;;;;;;;26.20;8.18;;;15.90;76.10;;;;;;5037297;28;20043;-82
2023/10/28 11:39:49;;;;;;;19.90;7.30;;;16.10;76.50;;;;;;5051250;28;20564;-84
2023/10/28 11:42:17;;;;;;;19.88;6.05;;;16.10;76.50;;;;;;5065675;28;20036;-84
2023/10/28 11:44:51;;;;;;;19.30;7.85;;;16.30;76.70;;;;;;5062254;28;20187;-84
2023/10/28 11:47:19;;;;;;;19.35;6.10;;;16.40;76.70;;;;;;5053440;28;20207;-85
2023/10/28 11:49:46;;;;;;;13.95;6.07;;;16.60;76.80;;;;;;5053507;28;20093;-87
2023/10/28 11:52:16;;;;;;;19.63;6.15;;;16.70;76.70;;;;;;5056677;28;20466;-82
2023/10/28 11:54:42;;;;;;;21.25;5.05;;;16.90;76.80;;;;;;5037390;28;20483;-82
2023/10/28 11:57:09;;;;;;;17.42;6.53;;;17.00;77.00;;;;;;5055282;28;20048;-81
2023/10/28 11:59:35;;;;;;;17.83;5.15;;;17.10;76.20;;;;;;5051496;28;20511;-82
2023/10/28 12:02:02;;;;;;;17.95;5.55;;;17.30;76.30;;;;;;5038191;28;20637;-81
2023/10/28 12:04:29;;;;;;;12.20;4.93;;;17.40;76.20;;;;;;5043139;28;20590;-80
2023/10/28 12:06:57;;;;;;;18.92;5.13;;;17.40;76.00;;;;;;5056667;28;20054;-84
2023/10/28 12:09:24;;;;;;;17.73;6.00;;;17.50;75.90;;;;;;5055260;28;20037;-78
2023/10/28 12:11:51;;;;;;;16.92;5.78;;;17.60;75.80;;;;;;5051140;28;20423;-81
2023/10/28 12:14:17;;;;;;;19.63;5.53;;;17.70;75.80;;;;;;5056220;28;20139;-79
2023/10/28 12:16:43;;;;;;;17.65;5.18;;;17.80;75.70;;;;;;5052135;28;20577;-82
2023/10/28 12:19:10;;;;;;;17.98;3.92;;;18.00;75.70;;;;;;5055430;28;20209;-81
2023/10/28 12:21:37;;;;;;;16.20;4.95;;;18.10;75.60;;;;;;5055516;28;20059;-80
2023/10/28 12:24:04;;;;;;;16.88;4.10;;;18.20;75.40;;;;;;5057230;28;20040;-81
2023/10/28 12:26:30;;;;;;;11.38;3.80;;;18.30;75.20;;;;;;5079678;28;20086;-80
2023/10/28 12:28:56;;;;;;;16.27;4.10;;;18.50;75.20;;;;;;5079341;28;20050;-79
2023/10/28 12:31:23;;;;;;;13.40;4.50;;;18.50;74.90;;;;;;5061712;28;20029;-78
2023/10/28 12:33:50;;;;;;;12.80;4.75;;;18.60;74.80;;;;;;5050728;28;20050;-79
2023/10/28 12:36:17;;;;;;;11.18;3.10;;;18.70;74.70;;;;;;5055265;28;20037;-79
2023/10/28 12:38:46;;;;;;;12.27;4.28;;;18.70;74.50;;;;;;5082778;27;20511;-78
2023/10/28 12:41:13;;;;;;;12.02;3.25;;;18.70;74.30;;;;;;5044580;28;20206;-78